createdAt,value
2023-03-04T00:00:15.731Z,135
2023-03-04T00:05:15.610Z,135
2023-03-04T00:10:15.659Z,180
2023-03-04T00:15:15.652Z,135
2023-03-04T00:20:15.746Z,135
2023-03-04T00:25:15.594Z,180
2023-03-04T00:30:15.653Z,180
2023-03-04T00:35:15.703Z,180
2023-03-04T00:40:15.651Z,180
2023-03-04T00:45:15.890Z,180
2023-03-04T00:50:15.812Z,180
2023-03-04T00:55:15.703Z,158
2023-03-04T01:00:15.696Z,135
2023-03-04T01:05:15.762Z,135
2023-03-04T01:10:15.692Z,158
2023-03-04T01:15:15.770Z,180
2023-03-04T01:20:15.812Z,180
2023-03-04T01:25:15.747Z,180
2023-03-04T01:30:15.923Z,180
2023-03-04T01:35:15.866Z,180
2023-03-04T01:40:19.040Z,180
2023-03-04T01:45:15.699Z,180
2023-03-04T01:50:16.828Z,180
2023-03-04T01:55:16.809Z,180
2023-03-04T02:00:16.986Z,180
2023-03-04T02:05:16.884Z,180
2023-03-04T02:10:16.923Z,135
2023-03-04T02:15:16.997Z,180
2023-03-04T02:20:16.906Z,180
2023-03-04T02:25:16.849Z,135
2023-03-04T02:30:16.867Z,180
2023-03-04T02:35:16.956Z,180
2023-03-04T02:40:16.924Z,158
2023-03-04T02:45:16.969Z,180
2023-03-04T02:50:16.957Z,180
2023-03-04T02:55:16.971Z,158
2023-03-04T03:00:16.969Z,180
2023-03-04T03:05:17.057Z,180
2023-03-04T03:10:17.099Z,180
2023-03-04T03:15:17.333Z,180
2023-03-04T03:20:17.344Z,180
2023-03-04T03:25:17.057Z,180
2023-03-04T03:30:17.107Z,180
2023-03-04T03:35:17.181Z,180
2023-03-04T03:40:17.111Z,180
2023-03-04T03:45:17.264Z,180
2023-03-04T03:50:17.080Z,180
2023-03-04T03:55:20.157Z,180
2023-03-04T04:00:17.200Z,180
2023-03-04T04:05:17.121Z,202
2023-03-04T04:10:17.108Z,180
2023-03-04T04:15:17.155Z,180
2023-03-04T04:20:17.276Z,180
2023-03-04T04:25:17.162Z,180
2023-03-04T04:30:17.388Z,180
2023-03-04T04:35:17.209Z,202
2023-03-04T04:40:17.298Z,202
2023-03-04T04:45:17.224Z,180
2023-03-04T04:50:17.206Z,202
2023-03-04T04:55:17.291Z,180
2023-03-04T05:00:16.258Z,180
2023-03-04T05:05:16.293Z,180
2023-03-04T05:10:16.250Z,180
2023-03-04T05:15:16.386Z,202
2023-03-04T05:20:16.299Z,202
2023-03-04T05:25:16.324Z,180
2023-03-04T05:30:16.429Z,180
2023-03-04T05:35:16.318Z,202
2023-03-04T05:40:16.303Z,180
2023-03-04T05:45:16.414Z,180
2023-03-04T05:50:17.420Z,180
2023-03-04T05:55:17.320Z,180
2023-03-04T06:00:15.406Z,135
2023-03-04T06:05:15.554Z,135
2023-03-04T06:10:15.418Z,180
2023-03-04T06:15:15.387Z,180
2023-03-04T06:20:15.407Z,135
2023-03-04T06:25:15.476Z,135
2023-03-04T06:30:15.464Z,135
2023-03-04T06:35:15.604Z,135
2023-03-04T06:40:15.565Z,135
2023-03-04T06:45:15.452Z,135
2023-03-04T06:50:15.567Z,112
2023-03-04T06:55:15.678Z,135
2023-03-04T07:00:15.765Z,135
2023-03-04T07:05:15.675Z,135
2023-03-04T07:10:15.569Z,135
2023-03-04T07:15:15.558Z,135
2023-03-04T07:20:15.708Z,135
2023-03-04T07:25:15.623Z,135
2023-03-04T07:30:15.578Z,135
2023-03-04T07:35:15.608Z,135
2023-03-04T07:40:15.596Z,135
2023-03-04T07:45:15.741Z,112
2023-03-04T07:50:17.889Z,135
2023-03-04T07:55:15.562Z,135
2023-03-04T08:00:15.619Z,112
2023-03-04T08:05:15.720Z,112
2023-03-04T08:10:15.640Z,112
2023-03-04T08:15:15.707Z,135
2023-03-04T08:20:15.667Z,135
2023-03-04T08:25:15.772Z,112
2023-03-04T08:30:15.701Z,112
2023-03-04T08:35:15.736Z,112
2023-03-04T08:40:15.803Z,112
2023-03-04T08:45:15.857Z,112
2023-03-04T08:50:15.799Z,112
2023-03-04T08:55:15.833Z,112
2023-03-04T09:00:15.860Z,112
2023-03-04T09:05:15.850Z,112
2023-03-04T09:10:15.788Z,112
2023-03-04T09:15:15.893Z,112
2023-03-04T09:20:15.797Z,112
2023-03-04T09:25:15.842Z,112
2023-03-04T09:30:15.956Z,112
2023-03-04T09:35:15.870Z,112
2023-03-04T09:40:15.829Z,112
2023-03-04T09:45:15.950Z,112
2023-03-04T09:50:15.882Z,112
2023-03-04T09:55:15.808Z,112
2023-03-04T10:00:15.928Z,112
2023-03-04T10:05:15.934Z,112
2023-03-04T10:10:16.011Z,112
2023-03-04T10:15:15.910Z,112
2023-03-04T10:20:15.933Z,112
2023-03-04T10:25:15.973Z,112
2023-03-04T10:30:15.977Z,112
2023-03-04T10:35:15.954Z,112
2023-03-04T10:40:16.070Z,90
2023-03-04T10:45:15.941Z,112
2023-03-04T10:50:16.003Z,112
2023-03-04T10:55:15.953Z,112
2023-03-04T11:00:15.960Z,112
2023-03-04T11:05:16.001Z,112
2023-03-04T11:10:15.996Z,112
2023-03-04T11:15:16.242Z,112
2023-03-04T11:20:16.265Z,112
2023-03-04T11:25:16.172Z,112
2023-03-04T11:30:16.182Z,112
2023-03-04T11:35:16.161Z,112
2023-03-04T11:40:16.329Z,112
2023-03-04T11:45:28.422Z,112
2023-03-04T11:50:16.490Z,112
2023-03-04T11:55:16.176Z,112
2023-03-04T12:00:16.165Z,112
2023-03-04T12:05:16.223Z,112
2023-03-04T12:10:16.267Z,112
2023-03-04T12:15:16.419Z,112
2023-03-04T12:20:16.978Z,112
2023-03-04T12:25:18.110Z,112
2023-03-04T12:30:16.293Z,112
2023-03-04T12:35:16.281Z,90
2023-03-04T12:40:16.239Z,112
2023-03-04T12:45:16.313Z,112
2023-03-04T12:50:16.545Z,90
2023-03-04T12:55:16.466Z,112
2023-03-04T13:00:16.425Z,90
2023-03-04T13:05:16.257Z,90
2023-03-04T13:10:16.325Z,112
2023-03-04T13:15:16.446Z,90
2023-03-04T13:20:16.313Z,90
2023-03-04T13:25:16.340Z,90
2023-03-04T13:30:16.377Z,90
2023-03-04T13:35:16.322Z,90
2023-03-04T13:40:16.393Z,90
2023-03-04T13:45:16.518Z,112
2023-03-04T13:50:16.321Z,90
2023-03-04T13:55:16.323Z,90
2023-03-04T14:00:16.402Z,90
2023-03-04T14:05:16.384Z,90
2023-03-04T14:10:16.375Z,90
2023-03-04T14:15:16.368Z,90
2023-03-04T14:20:16.395Z,90
2023-03-04T14:25:16.523Z,68
2023-03-04T14:30:16.584Z,90
2023-03-04T14:35:16.441Z,90
2023-03-04T14:40:16.755Z,90
2023-03-04T14:45:16.703Z,90
2023-03-04T14:50:16.614Z,90
2023-03-04T14:55:16.476Z,68
2023-03-04T15:00:16.728Z,68
2023-03-04T15:05:17.647Z,90
2023-03-04T15:10:16.560Z,90
2023-03-04T15:15:16.665Z,68
2023-03-04T15:20:16.812Z,45
2023-03-04T15:25:17.936Z,45
2023-03-04T15:30:16.641Z,45
2023-03-04T15:35:16.719Z,45
2023-03-04T15:40:16.702Z,68
2023-03-04T15:45:16.767Z,68
2023-03-04T15:50:16.778Z,68
2023-03-04T15:55:16.614Z,45
2023-03-04T16:00:16.864Z,45
2023-03-04T16:05:16.729Z,68
2023-03-04T16:10:16.697Z,45
2023-03-04T16:15:16.763Z,45
2023-03-04T16:20:17.005Z,45
2023-03-04T16:25:16.932Z,45
2023-03-04T16:30:16.783Z,45
2023-03-04T16:35:16.777Z,45
2023-03-04T16:40:16.774Z,68
2023-03-04T16:45:16.784Z,45
2023-03-04T16:50:16.750Z,45
2023-03-04T16:55:16.805Z,68
2023-03-04T17:00:16.816Z,45
2023-03-04T17:05:16.757Z,45
2023-03-04T17:10:16.786Z,45
2023-03-04T17:15:16.769Z,45
2023-03-04T17:20:17.646Z,45
2023-03-04T17:25:16.927Z,45
2023-03-04T17:30:16.803Z,68
2023-03-04T17:35:17.034Z,68
2023-03-04T17:40:16.850Z,45
2023-03-04T17:45:16.877Z,45
2023-03-04T17:50:16.839Z,68
2023-03-04T17:55:16.953Z,68
2023-03-04T18:00:16.966Z,68
2023-03-04T18:05:16.919Z,68
2023-03-04T18:10:16.986Z,45
2023-03-04T18:15:16.947Z,45
2023-03-04T18:20:16.920Z,68
2023-03-04T18:25:16.963Z,45
2023-03-04T18:30:17.087Z,45
2023-03-04T18:35:17.048Z,45
2023-03-04T18:40:17.030Z,68
2023-03-04T18:45:16.991Z,68
2023-03-04T18:50:17.042Z,45
2023-03-04T18:55:17.141Z,22
2023-03-04T19:00:17.180Z,45
2023-03-04T19:05:17.012Z,45
2023-03-04T19:10:17.110Z,68
2023-03-04T19:15:17.060Z,68
2023-03-04T19:20:17.083Z,45
2023-03-04T19:25:17.105Z,45
2023-03-04T19:30:17.146Z,45
2023-03-04T19:35:17.158Z,45
2023-03-04T19:40:17.216Z,68
2023-03-04T19:45:17.184Z,45
2023-03-04T19:50:17.230Z,45
2023-03-04T19:55:17.166Z,68
2023-03-04T20:00:17.264Z,45
2023-03-04T20:05:17.306Z,45
2023-03-04T20:10:17.232Z,68
2023-03-04T20:15:17.196Z,45
2023-03-04T20:20:17.225Z,45
2023-03-04T20:25:17.375Z,68
2023-03-04T20:30:17.241Z,45
2023-03-04T20:35:17.577Z,45
2023-03-04T20:40:17.366Z,22
2023-03-04T20:45:17.257Z,45
2023-03-04T20:50:17.295Z,45
2023-03-04T20:55:17.310Z,45
2023-03-04T21:00:17.557Z,45
2023-03-04T21:05:17.501Z,45
2023-03-04T21:10:17.365Z,45
2023-03-04T21:15:17.443Z,45
2023-03-04T21:20:17.398Z,45
2023-03-04T21:25:17.446Z,45
2023-03-04T21:30:17.433Z,22
2023-03-04T21:35:15.361Z,22
2023-03-04T21:40:15.833Z,22
2023-03-04T21:45:15.480Z,22
2023-03-04T21:50:15.422Z,22
2023-03-04T21:55:15.338Z,22
2023-03-04T22:00:15.494Z,22
2023-03-04T22:05:17.148Z,22
2023-03-04T22:10:15.499Z,45
2023-03-04T22:15:15.534Z,22
2023-03-04T22:20:15.628Z,22
2023-03-04T22:25:15.624Z,22
2023-03-04T22:30:15.614Z,22
2023-03-04T22:35:15.671Z,22
2023-03-04T22:40:15.514Z,22
2023-03-04T22:45:15.749Z,22
2023-03-04T22:50:15.600Z,22
2023-03-04T22:55:15.617Z,22
2023-03-04T23:00:15.684Z,22
2023-03-04T23:05:15.637Z,22
2023-03-04T23:10:15.839Z,22
2023-03-04T23:15:15.644Z,22
2023-03-04T23:20:15.676Z,22
2023-03-04T23:25:15.774Z,45
2023-03-04T23:30:15.697Z,22
2023-03-04T23:35:15.722Z,22
2023-03-04T23:40:15.748Z,22
2023-03-04T23:45:15.833Z,22
2023-03-04T23:50:15.813Z,22
2023-03-04T23:55:15.672Z,22
